Time;durP1;ratioP1;P1;durP2;ratioP2;P2;SDS_P1;SDS_P2;PMS_P1;PMS_P2;Temp;Humidity;BMP_temperature;BMP_pressure;BME280_temperature;BME280_humidity;BME280_pressure;Samples;Min_cycle;Max_cycle;Signal;HPM_P1;HPM_P2
2022/11/06 00:00:20;;;;;;;9.32;4.03;;;10.70;99.90;;;;;;5072380;28;20103;-73
2022/11/06 00:02:45;;;;;;;6.97;4.63;;;10.70;99.90;;;;;;5072019;28;20392;-74
2022/11/06 00:08:09;;;;;;;8.88;4.43;;;10.70;99.90;;;;;;5022995;28;20087;-73
2022/11/06 00:10:34;;;;;;;9.60;4.15;;;10.80;99.90;;;;;;5072183;28;20079;-73
2022/11/06 00:13:00;;;;;;;5.85;4.35;;;10.80;99.90;;;;;;5075816;28;20040;-73
2022/11/06 00:15:26;;;;;;;16.42;5.45;;;10.80;99.90;;;;;;5071167;28;20070;-73
2022/11/06 00:17:51;;;;;;;14.25;4.90;;;10.80;99.90;;;;;;5082524;28;20425;-74
2022/11/06 00:20:17;;;;;;;11.10;4.93;;;10.80;99.90;;;;;;5087598;28;20017;-73
2022/11/06 00:22:43;;;;;;;13.75;5.28;;;10.70;99.90;;;;;;5090293;28;20380;-73
2022/11/06 00:25:09;;;;;;;14.30;6.20;;;10.70;99.90;;;;;;5087690;28;20024;-74
2022/11/06 00:27:36;;;;;;;7.25;4.45;;;10.80;99.90;;;;;;5077768;28;20401;-74
2022/11/06 00:30:07;;;;;;;6.97;4.15;;;10.80;99.90;;;;;;5089744;28;20537;-73
2022/11/06 00:32:32;;;;;;;9.98;4.40;;;10.70;99.90;;;;;;5088630;28;20427;-74
2022/11/06 00:34:58;;;;;;;8.88;4.50;;;10.80;99.90;;;;;;5090654;28;20080;-74
2022/11/06 00:37:23;;;;;;;14.27;4.68;;;10.70;99.90;;;;;;5087438;28;20027;-72
2022/11/06 00:39:49;;;;;;;13.85;4.53;;;10.70;99.90;;;;;;5089643;28;20103;-73
2022/11/06 00:42:15;;;;;;;11.27;4.50;;;10.70;99.90;;;;;;5087850;28;20028;-73
2022/11/06 00:44:40;;;;;;;9.30;4.28;;;10.70;99.90;;;;;;5090274;28;20020;-74
2022/11/06 00:47:06;;;;;;;12.38;4.35;;;10.70;99.90;;;;;;5088451;28;20082;-74
2022/11/06 00:49:31;;;;;;;11.57;4.70;;;10.70;99.90;;;;;;5088718;28;20483;-73
2022/11/06 00:51:57;;;;;;;11.20;3.97;;;10.60;99.90;;;;;;5089859;28;20040;-74
2022/11/06 00:54:25;;;;;;;10.27;4.65;;;10.70;99.90;;;;;;5081851;28;20148;-73
2022/11/06 00:56:51;;;;;;;10.75;4.75;;;10.60;99.90;;;;;;5061191;28;20016;-73
2022/11/06 00:59:16;;;;;;;5.82;4.20;;;10.60;99.90;;;;;;5071485;28;20028;-74
2022/11/06 01:01:43;;;;;;;10.65;5.00;;;10.60;99.90;;;;;;5070667;28;20103;-74
2022/11/06 01:04:12;;;;;;;11.50;4.82;;;10.50;99.90;;;;;;5072759;28;20044;-74
2022/11/06 01:06:41;;;;;;;8.00;4.40;;;10.60;99.90;;;;;;5071987;28;20021;-73
2022/11/06 01:09:07;;;;;;;8.95;4.30;;;10.60;99.90;;;;;;5071317;28;20407;-73
2022/11/06 01:11:39;;;;;;;8.25;4.32;;;10.60;99.90;;;;;;5072032;28;20031;-73
2022/11/06 01:14:07;;;;;;;13.82;4.20;;;10.70;99.90;;;;;;5075704;28;20103;-74
2022/11/06 01:16:34;;;;;;;10.18;4.07;;;10.70;99.90;;;;;;5074707;28;20024;-73
2022/11/06 01:19:00;;;;;;;6.80;4.13;;;10.70;99.90;;;;;;5075949;28;20060;-74
2022/11/06 01:21:28;;;;;;;4.68;3.88;;;10.70;99.90;;;;;;5075068;28;20499;-73
2022/11/06 01:23:56;;;;;;;5.45;3.72;;;10.70;99.90;;;;;;5075278;28;20033;-73
2022/11/06 01:26:22;;;;;;;12.43;4.70;;;10.70;99.90;;;;;;5075774;28;20113;-73
2022/11/06 01:28:48;;;;;;;13.13;4.00;;;10.70;99.90;;;;;;5074643;28;20098;-73
2022/11/06 01:31:23;;;;;;;10.55;4.20;;;10.80;99.90;;;;;;5075620;28;20024;-74
2022/11/06 01:33:52;;;;;;;11.52;4.40;;;10.80;99.90;;;;;;5075972;28;20169;-73
2022/11/06 01:36:19;;;;;;;8.82;3.55;;;10.80;99.90;;;;;;5074956;28;20071;-72
2022/11/06 01:38:47;;;;;;;7.60;3.70;;;10.80;99.90;;;;;;5075012;28;20020;-73
2022/11/06 01:41:16;;;;;;;9.57;3.75;;;10.80;99.90;;;;;;5075803;28;20123;-74
2022/11/06 01:43:49;;;;;;;11.43;3.67;;;10.70;99.90;;;;;;5074833;28;20052;-74
2022/11/06 01:46:16;;;;;;;10.60;3.97;;;10.80;99.90;;;;;;5075009;28;20024;-73
2022/11/06 01:48:49;;;;;;;9.68;4.07;;;10.80;99.90;;;;;;5074621;28;20476;-73
2022/11/06 01:51:20;;;;;;;9.65;4.30;;;10.80;99.90;;;;;;5074669;28;20029;-73
2022/11/06 01:53:46;;;;;;;9.75;3.75;;;10.80;99.90;;;;;;5074366;28;20044;-73
2022/11/06 01:56:13;;;;;;;12.50;3.97;;;10.80;99.90;;;;;;5060716;28;20143;-73
2022/11/06 01:58:42;;;;;;;8.75;3.70;;;10.80;99.90;;;;;;5073505;28;20036;-73
2022/11/06 02:01:08;;;;;;;8.07;3.70;;;10.80;99.90;;;;;;5067965;28;20029;-72
2022/11/06 02:03:36;;;;;;;17.00;3.50;;;10.80;99.90;;;;;;5056677;28;20372;-73
2022/11/06 02:06:02;;;;;;;8.68;3.55;;;10.80;99.90;;;;;;5057863;28;20021;-73
2022/11/06 02:08:29;;;;;;;9.48;3.60;;;10.90;99.90;;;;;;5067269;28;20035;-73
2022/11/06 02:10:55;;;;;;;6.43;3.05;;;10.80;99.90;;;;;;5062751;28;20018;-74
2022/11/06 02:13:49;;;;;;;7.57;3.55;;;10.90;99.90;;;;;;5071627;28;20032;-74
2022/11/06 02:16:34;;;;;;;10.65;3.63;;;10.90;99.90;;;;;;5037890;28;20469;-73
2022/11/06 02:19:04;;;;;;;9.85;3.38;;;10.90;99.90;;;;;;5055940;28;20107;-74
2022/11/06 02:21:58;;;;;;;10.68;3.72;;;10.80;99.90;;;;;;5073915;28;20043;-73
2022/11/06 02:25:02;;;;;;;9.05;2.90;;;10.80;99.90;;;;;;5074036;28;20031;-73
2022/11/06 02:27:29;;;;;;;7.00;3.67;;;10.80;99.90;;;;;;5060850;28;20047;-73
2022/11/06 02:30:01;;;;;;;8.65;3.28;;;10.70;99.90;;;;;;5073749;28;20028;-73
2022/11/06 02:32:38;;;;;;;9.25;3.25;;;10.70;99.90;;;;;;5072748;28;20024;-73
2022/11/06 02:35:18;;;;;;;7.90;3.35;;;10.80;99.90;;;;;;5074001;28;20028;-73
2022/11/06 02:37:46;;;;;;;7.53;3.55;;;10.70;99.90;;;;;;5061029;28;20093;-73
2022/11/06 02:40:14;;;;;;;6.80;3.72;;;10.70;99.90;;;;;;5073380;28;20119;-74
2022/11/06 02:42:44;;;;;;;8.90;3.33;;;10.70;99.90;;;;;;5073867;28;20028;-73
2022/11/06 02:45:13;;;;;;;8.00;3.50;;;10.70;99.90;;;;;;5074157;28;20115;-73
2022/11/06 02:47:40;;;;;;;7.28;2.85;;;10.70;99.90;;;;;;5072790;28;20021;-73
2022/11/06 02:50:09;;;;;;;13.27;4.13;;;11.50;99.90;;;;;;5073910;28;20052;-73
2022/11/06 02:52:51;;;;;;;8.53;3.17;;;10.70;99.90;;;;;;5073427;28;20052;-73
2022/11/06 02:55:37;;;;;;;11.45;3.65;;;10.70;99.90;;;;;;5073736;28;20025;-73
2022/11/06 02:58:09;;;;;;;14.45;4.03;;;10.70;99.90;;;;;;5060266;28;20032;-75
2022/11/06 03:00:36;;;;;;;10.63;3.80;;;10.70;99.90;;;;;;5072853;28;20037;-73
2022/11/06 03:03:09;;;;;;;13.00;4.05;;;10.70;99.90;;;;;;5073474;28;20036;-73
2022/11/06 03:05:45;;;;;;;9.95;3.55;;;10.80;99.90;;;;;;5073290;28;20078;-72
2022/11/06 03:08:34;;;;;;;9.07;3.50;;;10.80;99.90;;;;;;5072849;28;20025;-73
2022/11/06 03:11:28;;;;;;;10.90;3.78;;;10.80;99.90;;;;;;5059340;28;20040;-73
2022/11/06 03:14:16;;;;;;;9.93;3.88;;;10.90;99.90;;;;;;5073698;28;20036;-72
2022/11/06 03:17:17;;;;;;;12.18;4.57;;;10.90;99.90;;;;;;5073097;28;20048;-73
2022/11/06 03:19:48;;;;;;;9.88;4.03;;;10.90;99.90;;;;;;5073513;28;20488;-73
2022/11/06 03:22:31;;;;;;;12.07;3.88;;;10.90;99.90;;;;;;5072474;28;20078;-74
2022/11/06 03:25:06;;;;;;;6.80;3.55;;;10.90;99.90;;;;;;5073298;28;20024;-73
2022/11/06 03:27:38;;;;;;;9.45;4.30;;;10.90;99.90;;;;;;5073142;28;20051;-74
2022/11/06 03:30:08;;;;;;;10.40;4.25;;;11.00;99.90;;;;;;5072247;28;20074;-73
2022/11/06 03:32:58;;;;;;;6.43;3.63;;;11.00;99.90;;;;;;5073459;28;20782;-73
2022/11/06 03:35:39;;;;;;;9.18;4.38;;;11.10;99.90;;;;;;5070500;28;20037;-73
2022/11/06 03:38:18;;;;;;;8.43;4.03;;;11.00;99.90;;;;;;5072630;28;20458;-74
2022/11/06 03:40:48;;;;;;;15.98;4.07;;;11.00;99.90;;;;;;5072508;28;20032;-74
2022/11/06 03:43:16;;;;;;;13.07;4.28;;;11.00;99.90;;;;;;5072291;28;20107;-74
2022/11/06 03:45:44;;;;;;;10.13;4.80;;;11.00;99.90;;;;;;5058516;28;20036;-74
2022/11/06 03:48:18;;;;;;;11.50;3.60;;;11.00;99.90;;;;;;5072787;28;20046;-74
2022/11/06 03:50:49;;;;;;;8.30;3.53;;;11.00;99.90;;;;;;5071562;28;20502;-73
2022/11/06 03:53:24;;;;;;;17.33;5.47;;;11.10;99.90;;;;;;5072876;28;20047;-73
2022/11/06 03:55:56;;;;;;;15.95;4.50;;;10.90;99.90;;;;;;5072631;28;20542;-73
2022/11/06 03:58:30;;;;;;;12.48;4.47;;;10.90;99.90;;;;;;5072446;28;20423;-73
2022/11/06 04:00:58;;;;;;;9.85;4.15;;;10.90;99.90;;;;;;5072533;28;20024;-73
2022/11/06 04:03:33;;;;;;;9.50;4.47;;;11.00;99.90;;;;;;5071607;28;20025;-73
2022/11/06 04:06:16;;;;;;;11.43;4.60;;;11.00;99.90;;;;;;5067509;28;20028;-73
2022/11/06 04:14:21;;;;;;;12.93;4.35;;;10.90;99.90;;;;;;5072422;28;20041;-73
2022/11/06 04:16:52;;;;;;;7.32;4.25;;;10.90;99.90;;;;;;5072163;28;20024;-73
2022/11/06 04:19:18;;;;;;;;;;;10.90;99.90;;;;;;5072293;28;20404;-73
2022/11/06 04:22:25;;;;;;;9.18;3.95;;;10.90;99.90;;;;;;5072209;28;19912;-73
2022/11/06 04:28:04;;;;;;;10.35;4.20;;;10.90;99.90;;;;;;5073481;28;20059;-73
2022/11/06 04:30:37;;;;;;;9.10;4.53;;;10.90;99.90;;;;;;5072501;28;20111;-73
2022/11/06 04:33:10;;;;;;;9.02;4.30;;;10.90;99.90;;;;;;5071764;28;20480;-73
2022/11/06 04:35:59;;;;;;;10.70;3.95;;;10.90;99.90;;;;;;5059224;28;20017;-74
2022/11/06 04:38:51;;;;;;;9.68;4.22;;;10.90;99.90;;;;;;5071982;28;20033;-73
2022/11/06 04:41:22;;;;;;;10.18;3.70;;;11.00;99.90;;;;;;5072508;28;20381;-73
2022/11/06 04:43:58;;;;;;;10.85;3.17;;;11.00;99.90;;;;;;5072085;28;20020;-72
2022/11/06 04:46:34;;;;;;;5.60;3.33;;;11.00;99.90;;;;;;5071841;28;20025;-73
2022/11/06 04:49:04;;;;;;;4.95;2.80;;;11.00;99.90;;;;;;5076255;28;20021;-73
2022/11/06 04:51:35;;;;;;;8.80;3.20;;;11.00;99.90;;;;;;5075970;28;20111;-73
2022/11/06 04:54:00;;;;;;;;;;;10.90;99.90;;;;;;5076124;28;20047;-74
2022/11/06 04:56:29;;;;;;;9.43;2.85;;;11.00;99.90;;;;;;5075661;28;19904;-74
2022/11/06 04:58:55;;;;;;;7.45;3.10;;;10.90;99.90;;;;;;5075697;28;20077;-72
2022/11/06 05:01:21;;;;;;;7.70;3.22;;;11.00;99.90;;;;;;5075446;28;20016;-74
2022/11/06 05:03:47;;;;;;;9.75;2.92;;;11.00;99.90;;;;;;5075467;28;20063;-73
2022/11/06 05:06:12;;;;;;;8.23;2.20;;;11.00;99.90;;;;;;5076239;28;20118;-73
2022/11/06 05:08:38;;;;;;;7.38;2.92;;;11.10;99.90;;;;;;5075191;28;20017;-73
2022/11/06 05:11:04;;;;;;;8.75;3.28;;;11.00;99.90;;;;;;5061808;28;20126;-74
2022/11/06 05:13:29;;;;;;;12.05;3.00;;;11.10;99.90;;;;;;5075874;28;20064;-73
2022/11/06 05:15:56;;;;;;;6.00;2.75;;;11.10;99.90;;;;;;5074740;28;20125;-74
2022/11/06 05:18:22;;;;;;;8.05;2.42;;;11.10;99.90;;;;;;5075267;28;20560;-73
2022/11/06 05:22:56;;;;;;;9.13;2.40;;;11.10;99.90;;;;;;5075031;28;20060;-74
2022/11/06 05:23:40;;;;;;;5.68;2.30;;;11.10;99.90;;;;;;5061965;28;20029;-73
2022/11/06 05:26:07;;;;;;;3.05;1.90;;;11.10;99.90;;;;;;5075808;28;20039;-74
2022/11/06 05:28:33;;;;;;;5.70;2.50;;;11.10;99.90;;;;;;5074449;28;20128;-73
2022/11/06 05:30:58;;;;;;;5.63;2.17;;;11.10;99.90;;;;;;5075451;28;20060;-73
2022/11/06 05:33:24;;;;;;;9.18;2.05;;;11.10;99.90;;;;;;5074640;28;21825;-73
2022/11/06 05:35:50;;;;;;;9.10;2.65;;;11.00;99.90;;;;;;5074836;28;20021;-74
2022/11/06 05:38:17;;;;;;;5.90;2.10;;;11.00;99.90;;;;;;5075237;28;20082;-74
2022/11/06 05:40:43;;;;;;;5.65;2.13;;;11.00;99.90;;;;;;5075138;28;20052;-73
2022/11/06 05:43:09;;;;;;;6.30;2.40;;;10.90;99.90;;;;;;5074749;28;20048;-74
2022/11/06 05:45:34;;;;;;;11.43;2.78;;;10.90;99.90;;;;;;5074770;28;20400;-73
2022/11/06 05:48:00;;;;;;;10.38;2.63;;;10.90;99.90;;;;;;5075076;28;20024;-73
2022/11/06 05:50:25;;;;;;;5.32;2.67;;;10.90;99.90;;;;;;5074091;28;20013;-73
2022/11/06 05:52:51;;;;;;;8.75;2.80;;;10.90;99.90;;;;;;5074925;28;20057;-73
2022/11/06 05:55:17;;;;;;;4.32;2.00;;;10.90;99.90;;;;;;5074560;28;20025;-73
2022/11/06 05:57:43;;;;;;;3.80;2.22;;;10.80;99.90;;;;;;5073488;28;20029;-73
2022/11/06 06:00:09;;;;;;;5.53;2.20;;;10.80;99.90;;;;;;5074799;28;20373;-72
2022/11/06 06:02:36;;;;;;;10.20;3.03;;;10.80;99.90;;;;;;5074878;28;20063;-73
2022/11/06 06:05:02;;;;;;;7.45;2.55;;;10.70;99.90;;;;;;5074181;28;20021;-74
2022/11/06 06:07:28;;;;;;;5.18;2.88;;;10.70;99.90;;;;;;5074604;28;20099;-73
2022/11/06 06:09:53;;;;;;;6.72;2.58;;;10.70;99.90;;;;;;5069425;28;20059;-73
2022/11/06 06:12:19;;;;;;;6.75;3.00;;;10.70;99.90;;;;;;5065495;28;20020;-73
2022/11/06 06:14:44;;;;;;;6.07;2.53;;;10.70;99.90;;;;;;5073829;28;20028;-73
2022/11/06 06:17:10;;;;;;;5.10;2.40;;;10.60;99.90;;;;;;5073941;28;20108;-73
2022/11/06 06:19:36;;;;;;;5.53;2.75;;;10.60;99.90;;;;;;5074132;28;20105;-73
2022/11/06 06:22:01;;;;;;;5.82;2.40;;;10.60;99.90;;;;;;5075053;28;20049;-73
2022/11/06 06:24:27;;;;;;;8.10;2.38;;;10.60;99.90;;;;;;5073519;28;20020;-73
2022/11/06 06:26:52;;;;;;;7.72;2.78;;;10.60;99.90;;;;;;5060273;28;20036;-73
2022/11/06 06:29:18;;;;;;;4.50;1.85;;;10.60;99.90;;;;;;5074134;28;20041;-73
2022/11/06 06:31:43;;;;;;;11.00;3.28;;;10.60;99.90;;;;;;5073085;28;20024;-73
2022/11/06 06:34:09;;;;;;;6.38;2.40;;;10.60;99.90;;;;;;5073956;28;20051;-74
2022/11/06 06:36:34;;;;;;;7.72;3.03;;;10.60;99.90;;;;;;5073891;28;20021;-73
2022/11/06 06:39:00;;;;;;;13.23;2.65;;;10.60;99.90;;;;;;5073176;28;20028;-74
2022/11/06 06:41:26;;;;;;;5.32;2.20;;;10.70;99.90;;;;;;5073821;28;20024;-73
2022/11/06 06:43:51;;;;;;;6.88;2.50;;;10.70;99.90;;;;;;5073679;28;20076;-73
2022/11/06 06:46:17;;;;;;;6.35;2.35;;;10.70;99.90;;;;;;5073271;28;20033;-73
2022/11/06 06:48:42;;;;;;;6.20;2.88;;;10.60;99.90;;;;;;5073547;28;20051;-73
2022/11/06 06:51:08;;;;;;;11.30;2.95;;;10.50;99.90;;;;;;5074053;28;20032;-72
2022/11/06 06:53:34;;;;;;;4.82;2.08;;;10.50;99.90;;;;;;5072136;28;20101;-73
2022/11/06 06:56:00;;;;;;;9.25;2.55;;;10.50;99.90;;;;;;5061061;28;20103;-73
2022/11/06 06:58:29;;;;;;;6.00;2.30;;;10.50;99.90;;;;;;5053184;28;20029;-73
2022/11/06 07:00:58;;;;;;;7.82;2.00;;;10.50;99.90;;;;;;5062115;28;20028;-73
2022/11/06 07:03:24;;;;;;;4.35;2.25;;;10.50;99.90;;;;;;5056048;28;20432;-74
2022/11/06 07:05:49;;;;;;;8.90;3.20;;;10.50;99.90;;;;;;5052273;28;20028;-73
2022/11/06 07:08:15;;;;;;;6.32;1.98;;;10.60;99.90;;;;;;5055592;28;20496;-73
2022/11/06 07:10:41;;;;;;;5.95;2.30;;;10.50;99.90;;;;;;5052541;28;20378;-73
2022/11/06 07:13:06;;;;;;;7.97;2.10;;;10.50;99.90;;;;;;5056725;28;20025;-72
2022/11/06 07:15:32;;;;;;;8.38;2.90;;;10.50;99.90;;;;;;5056078;28;20130;-73
2022/11/06 07:18:05;;;;;;;9.48;3.13;;;10.50;99.90;;;;;;5055067;28;20074;-74
2022/11/06 07:20:34;;;;;;;7.45;2.17;;;10.50;99.90;;;;;;5054879;28;20440;-74
2022/11/06 07:23:05;;;;;;;6.22;2.30;;;10.50;99.90;;;;;;5056052;28;20453;-73
2022/11/06 07:25:31;;;;;;;8.50;2.03;;;10.50;99.90;;;;;;5053410;28;20029;-73
2022/11/06 07:28:01;;;;;;;8.00;2.90;;;10.50;99.90;;;;;;5061529;28;20040;-73
2022/11/06 07:30:26;;;;;;;10.90;2.60;;;10.60;99.90;;;;;;5052392;28;20384;-72
2022/11/06 07:32:52;;;;;;;7.68;2.88;;;10.70;99.90;;;;;;5057819;28;20116;-73
2022/11/06 07:35:17;;;;;;;8.85;2.50;;;10.70;99.90;;;;;;5056541;28;20020;-73
2022/11/06 07:37:43;;;;;;;7.20;2.47;;;10.80;99.90;;;;;;5059363;28;20535;-73
2022/11/06 07:40:09;;;;;;;4.75;2.35;;;10.90;99.90;;;;;;5068821;28;20476;-73
2022/11/06 07:42:35;;;;;;;4.63;1.88;;;10.90;99.90;;;;;;5089735;28;20533;-73
2022/11/06 07:45:01;;;;;;;9.38;2.90;;;11.10;99.90;;;;;;5090932;28;20028;-73
2022/11/06 07:47:29;;;;;;;11.70;2.47;;;11.30;99.90;;;;;;5089411;28;20016;-73
2022/11/06 07:49:55;;;;;;;10.32;2.58;;;11.30;99.90;;;;;;5090855;28;20031;-74
2022/11/06 07:52:21;;;;;;;6.93;2.35;;;11.40;99.90;;;;;;5089832;28;20392;-74
2022/11/06 07:54:46;;;;;;;6.53;2.30;;;11.50;99.90;;;;;;5073136;28;20356;-73
2022/11/06 07:57:12;;;;;;;6.07;2.03;;;11.70;99.90;;;;;;5088249;28;20039;-73
2022/11/06 07:59:37;;;;;;;3.60;2.03;;;11.80;99.90;;;;;;5090717;28;20016;-74
2022/11/06 08:02:03;;;;;;;8.88;3.88;;;11.90;99.90;;;;;;5089706;28;20577;-73
2022/11/06 08:04:32;;;;;;;6.78;2.42;;;12.00;99.90;;;;;;5089321;28;20016;-73
2022/11/06 08:06:57;;;;;;;6.43;2.80;;;12.00;99.90;;;;;;5091138;28;20024;-74
2022/11/06 08:09:25;;;;;;;10.27;2.25;;;12.20;99.90;;;;;;5084177;28;20016;-74
2022/11/06 08:11:51;;;;;;;4.25;2.30;;;12.20;99.90;;;;;;5061052;28;20025;-74
2022/11/06 08:14:17;;;;;;;3.53;1.92;;;12.30;99.90;;;;;;5077058;28;20032;-73
2022/11/06 08:16:42;;;;;;;9.38;2.10;;;12.50;99.90;;;;;;5088047;28;20022;-73
2022/11/06 08:19:08;;;;;;;3.65;1.85;;;12.60;99.90;;;;;;5090890;28;20107;-73
2022/11/06 08:21:33;;;;;;;4.75;2.20;;;12.60;99.90;;;;;;5088404;28;20017;-73
2022/11/06 08:23:59;;;;;;;5.68;2.10;;;12.70;99.90;;;;;;5089756;28;20031;-73
2022/11/06 08:26:27;;;;;;;3.90;1.75;;;12.70;99.90;;;;;;5089071;28;20016;-73
2022/11/06 08:28:53;;;;;;;10.80;2.72;;;12.70;99.90;;;;;;5090693;28;20077;-72
2022/11/06 08:31:19;;;;;;;5.65;2.13;;;12.70;99.90;;;;;;5090063;28;20028;-73
2022/11/06 08:33:45;;;;;;;3.88;1.80;;;12.70;99.90;;;;;;5088454;28;20388;-72
2022/11/06 08:36:11;;;;;;;7.55;2.45;;;12.70;99.90;;;;;;5090307;28;20024;-73
2022/11/06 08:38:37;;;;;;;5.90;2.10;;;12.80;99.90;;;;;;5087974;28;20059;-73
2022/11/06 08:41:07;;;;;;;8.57;2.28;;;12.80;99.90;;;;;;5089517;28;20534;-72
2022/11/06 08:43:33;;;;;;;5.35;1.83;;;12.90;99.90;;;;;;5088302;28;20032;-74
2022/11/06 08:45:58;;;;;;;3.80;1.95;;;13.00;99.90;;;;;;5089759;28;20164;-73
2022/11/06 08:48:24;;;;;;;6.20;1.85;;;13.00;99.90;;;;;;5076731;28;20075;-73
2022/11/06 08:50:49;;;;;;;5.10;2.10;;;13.10;99.90;;;;;;5065329;28;20508;-72
2022/11/06 08:53:15;;;;;;;5.78;1.88;;;13.10;99.90;;;;;;5073771;28;20032;-75
2022/11/06 08:55:40;;;;;;;3.67;2.50;;;13.20;99.90;;;;;;5088467;28;20412;-74
2022/11/06 08:58:07;;;;;;;7.00;1.90;;;13.30;99.90;;;;;;5086873;28;20039;-73
2022/11/06 09:00:33;;;;;;;10.18;2.42;;;13.30;99.90;;;;;;5069525;28;20379;-73
2022/11/06 09:03:19;;;;;;;5.72;2.15;;;13.40;99.90;;;;;;5070609;28;20074;-73
2022/11/06 09:05:45;;;;;;;7.95;1.98;;;13.40;99.90;;;;;;5072745;28;20078;-73
2022/11/06 09:08:11;;;;;;;4.05;1.65;;;13.40;99.90;;;;;;5074222;28;20024;-73
2022/11/06 09:10:38;;;;;;;8.43;2.00;;;13.50;99.90;;;;;;5066250;28;20045;-73
2022/11/06 09:13:04;;;;;;;4.68;1.80;;;13.60;99.90;;;;;;5076583;28;20037;-73
2022/11/06 09:15:30;;;;;;;6.45;2.08;;;13.60;99.90;;;;;;5078261;28;20383;-72
2022/11/06 09:17:58;;;;;;;5.20;1.88;;;13.60;99.90;;;;;;5088156;28;20488;-72
2022/11/06 09:20:25;;;;;;;3.92;1.60;;;13.60;99.90;;;;;;5075600;28;20161;-73
2022/11/06 09:22:54;;;;;;;3.38;1.92;;;13.60;99.90;;;;;;5082016;28;20031;-72
2022/11/06 09:25:20;;;;;;;7.13;1.67;;;13.70;99.90;;;;;;5077011;28;20161;-73
2022/11/06 09:27:48;;;;;;;6.70;1.80;;;13.70;99.90;;;;;;5079511;28;20510;-73
2022/11/06 09:30:18;;;;;;;3.33;1.80;;;13.80;99.90;;;;;;5078027;28;20036;-73
2022/11/06 09:32:48;;;;;;;9.65;2.10;;;13.70;99.90;;;;;;5079626;28;20043;-73
2022/11/06 09:35:14;;;;;;;8.40;1.50;;;13.70;99.90;;;;;;5082024;28;20024;-73
2022/11/06 09:37:40;;;;;;;6.82;2.05;;;13.70;99.90;;;;;;5065204;28;20029;-73
2022/11/06 09:40:07;;;;;;;10.43;1.98;;;13.70;99.90;;;;;;5082066;28;20073;-73
2022/11/06 09:42:44;;;;;;;2.97;1.70;;;13.60;99.90;;;;;;5077988;28;20526;-73
2022/11/06 09:45:21;;;;;;;8.63;1.90;;;13.60;99.90;;;;;;5080885;28;20020;-72
2022/11/06 09:47:56;;;;;;;4.57;1.95;;;13.50;99.90;;;;;;5054278;28;20037;-73
2022/11/06 09:50:28;;;;;;;5.93;3.13;;;13.50;99.90;;;;;;5062415;28;20116;-73
2022/11/06 09:53:41;;;;;;;4.40;1.65;;;13.50;99.90;;;;;;5093479;28;20086;-72
2022/11/06 09:56:11;;;;;;;3.90;1.90;;;13.40;99.90;;;;;;5017496;28;20042;-73
2022/11/06 09:58:40;;;;;;;11.38;2.60;;;13.40;99.90;;;;;;5083191;28;20016;-73
2022/11/06 10:01:20;;;;;;;6.38;1.83;;;13.40;99.90;;;;;;5092189;28;20024;-73
2022/11/06 10:03:51;;;;;;;4.20;1.75;;;13.30;99.90;;;;;;5091317;28;20013;-73
2022/11/06 10:06:20;;;;;;;3.50;1.50;;;13.30;99.90;;;;;;5084162;28;20019;-75
2022/11/06 10:08:46;;;;;;;4.35;1.58;;;13.30;99.90;;;;;;5092735;28;20099;-72
2022/11/06 10:11:14;;;;;;;6.20;2.08;;;13.40;99.90;;;;;;5061943;28;20583;-72
2022/11/06 10:14:07;;;;;;;7.28;2.20;;;13.50;99.90;;;;;;5074083;28;20059;-72
2022/11/06 10:16:48;;;;;;;6.95;2.00;;;13.60;99.90;;;;;;5073418;28;20560;-72
2022/11/06 10:19:17;;;;;;;4.13;1.85;;;13.70;99.90;;;;;;5074734;28;20112;-72
2022/11/06 10:22:24;;;;;;;5.13;1.88;;;13.70;99.90;;;;;;5074274;28;20021;-73
2022/11/06 10:25:11;;;;;;;7.25;1.73;;;13.80;99.90;;;;;;5062129;28;20127;-75
2022/11/06 10:27:44;;;;;;;7.10;2.05;;;13.80;99.90;;;;;;5075442;28;20123;-75
2022/11/06 10:30:14;;;;;;;4.68;1.65;;;13.80;99.90;;;;;;5074002;28;20483;-75
2022/11/06 10:33:05;;;;;;;4.95;1.95;;;13.90;99.90;;;;;;5074613;28;20047;-75
2022/11/06 10:35:39;;;;;;;3.17;1.45;;;13.90;99.90;;;;;;5074721;28;20021;-75
2022/11/06 10:38:22;;;;;;;4.25;2.00;;;14.00;99.90;;;;;;5074292;28;20035;-75
2022/11/06 10:40:49;;;;;;;4.25;1.88;;;13.90;99.90;;;;;;5062260;28;20033;-76
2022/11/06 10:43:27;;;;;;;3.28;2.13;;;13.90;99.90;;;;;;5074774;28;20040;-76
2022/11/06 10:46:15;;;;;;;8.13;2.78;;;13.90;99.90;;;;;;5068496;28;20055;-76
2022/11/06 10:48:49;;;;;;;10.52;2.20;;;13.80;99.90;;;;;;5073190;28;20039;-76
2022/11/06 10:51:24;;;;;;;4.15;1.65;;;13.80;99.90;;;;;;5069067;28;20021;-76
2022/11/06 10:54:13;;;;;;;5.13;2.00;;;13.80;99.90;;;;;;5070021;28;20044;-75
2022/11/06 10:56:54;;;;;;;2.63;1.63;;;13.90;99.90;;;;;;5069478;28;20017;-75
2022/11/06 10:59:19;;;;;;;4.30;1.75;;;13.90;99.90;;;;;;5068227;28;20259;-76
2022/11/06 11:01:45;;;;;;;5.07;1.63;;;13.90;99.90;;;;;;5071758;28;20099;-75
2022/11/06 11:04:11;;;;;;;3.33;1.73;;;14.00;99.90;;;;;;5073244;28;20118;-74
2022/11/06 11:06:40;;;;;;;3.70;1.58;;;13.90;99.90;;;;;;5067566;28;20016;-75
2022/11/06 11:09:31;;;;;;;7.85;2.20;;;13.90;99.90;;;;;;5070745;28;20025;-75
2022/11/06 11:11:58;;;;;;;3.83;1.90;;;13.80;99.90;;;;;;5060815;28;20032;-75
2022/11/06 11:14:29;;;;;;;2.97;1.50;;;13.80;99.90;;;;;;5055665;28;20128;-76
2022/11/06 11:16:58;;;;;;;4.95;1.58;;;13.70;99.90;;;;;;5068756;28;20028;-76
2022/11/06 11:19:34;;;;;;;7.97;1.70;;;13.70;99.90;;;;;;5052496;28;20040;-75
2022/11/06 11:22:03;;;;;;;3.63;1.75;;;13.60;99.90;;;;;;5080352;28;20012;-76
2022/11/06 11:24:29;;;;;;;6.60;2.33;;;13.70;99.90;;;;;;5073318;28;20020;-74
2022/11/06 11:27:03;;;;;;;6.72;1.95;;;13.60;99.90;;;;;;5071812;28;20016;-75
2022/11/06 11:29:32;;;;;;;5.00;2.28;;;13.50;99.90;;;;;;5030899;28;20041;-75
2022/11/06 11:32:04;;;;;;;3.38;1.35;;;13.60;99.90;;;;;;5034491;28;20026;-76
2022/11/06 11:34:37;;;;;;;6.82;2.05;;;13.50;99.90;;;;;;5049261;28;20543;-75
2022/11/06 11:37:07;;;;;;;7.70;2.10;;;13.50;99.90;;;;;;5046596;28;20017;-76
2022/11/06 11:39:38;;;;;;;3.90;1.53;;;13.40;99.90;;;;;;5054132;28;20054;-75
2022/11/06 11:42:22;;;;;;;8.05;1.90;;;13.40;99.90;;;;;;5045970;28;20269;-76
2022/11/06 11:45:08;;;;;;;6.68;1.70;;;13.40;99.90;;;;;;5049412;28;20025;-75
2022/11/06 11:47:36;;;;;;;4.32;1.70;;;13.30;99.90;;;;;;5046763;28;20423;-74
2022/11/06 11:50:24;;;;;;;6.90;2.20;;;13.30;99.90;;;;;;5049873;28;20487;-75
2022/11/06 11:53:12;;;;;;;4.82;1.92;;;13.20;99.90;;;;;;5048401;28;20056;-75
2022/11/06 11:55:45;;;;;;;8.27;2.20;;;13.20;99.90;;;;;;5015157;28;20018;-75
2022/11/06 11:58:21;;;;;;;7.53;1.90;;;13.20;99.90;;;;;;5018913;28;20033;-75
2022/11/06 12:00:53;;;;;;;6.57;2.28;;;13.10;99.90;;;;;;5028053;28;20022;-74
2022/11/06 12:03:20;;;;;;;6.05;2.00;;;13.00;99.90;;;;;;5029396;28;20083;-74
2022/11/06 12:05:46;;;;;;;7.55;2.25;;;13.00;99.90;;;;;;5030090;28;20105;-74
2022/11/06 12:08:21;;;;;;;4.55;1.95;;;12.90;99.90;;;;;;5029045;28;20104;-74
2022/11/06 12:10:48;;;;;;;6.60;1.90;;;12.90;99.90;;;;;;5019878;28;20029;-74
2022/11/06 12:13:20;;;;;;;3.13;1.92;;;12.80;99.90;;;;;;5026417;28;20061;-74
2022/11/06 12:15:57;;;;;;;6.60;2.28;;;12.80;99.90;;;;;;5013280;28;20105;-74
2022/11/06 12:18:42;;;;;;;6.70;2.08;;;12.70;99.90;;;;;;5022683;28;20434;-74
2022/11/06 12:21:31;;;;;;;3.40;1.98;;;12.70;99.90;;;;;;5026373;28;20030;-75
2022/11/06 12:24:03;;;;;;;7.53;2.22;;;12.80;99.90;;;;;;5031846;28;20030;-75
2022/11/06 12:26:52;;;;;;;4.05;2.15;;;12.80;99.90;;;;;;5036051;28;20471;-75
2022/11/06 12:29:43;;;;;;;7.15;2.55;;;12.80;99.90;;;;;;5064695;28;20049;-74
2022/11/06 12:32:31;;;;;;;8.27;2.20;;;12.90;99.90;;;;;;5072289;28;20024;-74
2022/11/06 12:35:17;;;;;;;4.03;1.83;;;12.80;99.90;;;;;;5076043;28;20029;-74
2022/11/06 12:37:53;;;;;;;5.55;1.90;;;12.80;99.90;;;;;;5064257;28;20400;-74
2022/11/06 12:40:29;;;;;;;3.97;1.85;;;12.80;99.90;;;;;;5070156;28;20072;-75
2022/11/06 12:42:55;;;;;;;7.32;2.38;;;12.80;99.90;;;;;;5070563;28;20048;-73
2022/11/06 12:45:28;;;;;;;3.03;1.77;;;12.70;99.90;;;;;;5084239;28;20352;-74
2022/11/06 12:48:17;;;;;;;9.00;2.28;;;12.60;99.90;;;;;;5079299;28;20025;-74
2022/11/06 12:51:33;;;;;;;6.80;2.85;;;12.60;99.90;;;;;;5074579;28;20032;-75
2022/11/06 12:54:39;;;;;;;4.60;1.83;;;12.60;99.90;;;;;;5019635;28;20049;-74
2022/11/06 12:57:25;;;;;;;5.72;2.10;;;12.50;99.90;;;;;;5072810;28;20020;-73
2022/11/06 13:00:08;;;;;;;3.65;2.10;;;12.50;99.90;;;;;;5077775;28;20082;-73
2022/11/06 13:03:01;;;;;;;7.68;2.30;;;12.40;99.90;;;;;;5085037;28;20333;-73
2022/11/06 13:05:51;;;;;;;5.47;2.25;;;12.40;99.90;;;;;;5086210;28;20027;-74
2022/11/06 13:08:56;;;;;;;3.83;1.70;;;12.40;99.90;;;;;;5070729;28;20551;-73
2022/11/06 13:11:43;;;;;;;4.45;2.13;;;12.30;99.90;;;;;;5075470;28;20024;-74
2022/11/06 13:14:24;;;;;;;3.90;1.80;;;12.40;99.90;;;;;;5068390;28;20028;-75
2022/11/06 13:17:39;;;;;;;6.40;2.28;;;11.60;99.90;;;;;;5070263;28;20074;-73
2022/11/06 13:20:47;;;;;;;9.60;2.25;;;12.20;99.90;;;;;;5055009;28;20058;-74